sensor_id;sensor_type;location;lat;lon;timestamp;P1;P2;P0
37290;PMS5003;23175;-33.706;151.094;2022-09-30T00:00:21;6;4;
37290;PMS5003;23175;-33.706;151.094;2022-09-30T00:02:51;6;4;
37290;PMS5003;23175;-33.706;151.094;2022-09-30T00:05:22;9;5;
37290;PMS5003;23175;-33.706;151.094;2022-09-30T00:07:53;6;3;
37290;PMS5003;23175;-33.706;151.094;2022-09-30T00:10:23;8;3;
37290;PMS5003;23175;-33.706;151.094;2022-09-30T00:12:53;9;3;
37290;PMS5003;23175;-33.706;151.094;2022-09-30T00:15:24;4;4;
37290;PMS5003;23175;-33.706;151.094;2022-09-30T00:17:54;6;3;
37290;PMS5003;23175;-33.706;151.094;2022-09-30T00:20:28;4;4;
37290;PMS5003;23175;-33.706;151.094;2022-09-30T00:22:58;5;3;
37290;PMS5003;23175;-33.706;151.094;2022-09-30T00:25:28;6;3;
37290;PMS5003;23175;-33.706;151.094;2022-09-30T00:27:59;12;3;
37290;PMS5003;23175;-33.706;151.094;2022-09-30T00:30:29;6;2;
37290;PMS5003;23175;-33.706;151.094;2022-09-30T00:32:59;4;4;
37290;PMS5003;23175;-33.706;151.094;2022-09-30T00:35:29;7;4;
37290;PMS5003;23175;-33.706;151.094;2022-09-30T00:38:00;5;3;
37290;PMS5003;23175;-33.706;151.094;2022-09-30T00:40:30;7;4;
37290;PMS5003;23175;-33.706;151.094;2022-09-30T00:43:00;4;1;
37290;PMS5003;23175;-33.706;151.094;2022-09-30T00:45:31;3;3;
37290;PMS5003;23175;-33.706;151.094;2022-09-30T00:48:02;10;8;
37290;PMS5003;23175;-33.706;151.094;2022-09-30T00:50:39;4;3;
37290;PMS5003;23175;-33.706;151.094;2022-09-30T00:53:13;6;5;
37290;PMS5003;23175;-33.706;151.094;2022-09-30T00:55:49;4;3;
37290;PMS5003;23175;-33.706;151.094;2022-09-30T00:58:26;6;6;
37290;PMS5003;23175;-33.706;151.094;2022-09-30T01:01:00;11;6;
37290;PMS5003;23175;-33.706;151.094;2022-09-30T01:03:31;5;3;
37290;PMS5003;23175;-33.706;151.094;2022-09-30T01:06:05;5;2;
37290;PMS5003;23175;-33.706;151.094;2022-09-30T01:08:36;4;2;
37290;PMS5003;23175;-33.706;151.094;2022-09-30T01:11:07;0;0;
37290;PMS5003;23175;-33.706;151.094;2022-09-30T01:13:37;1;1;
37290;PMS5003;23175;-33.706;151.094;2022-09-30T01:16:16;3;2;
37290;PMS5003;23175;-33.706;151.094;2022-09-30T01:18:59;3;2;
37290;PMS5003;23175;-33.706;151.094;2022-09-30T01:21:48;4;2;
37290;PMS5003;23175;-33.706;151.094;2022-09-30T01:24:40;3;2;
37290;PMS5003;23175;-33.706;151.094;2022-09-30T01:27:43;6;1;
37290;PMS5003;23175;-33.706;151.094;2022-09-30T01:30:36;4;1;
37290;PMS5003;23175;-33.706;151.094;2022-09-30T01:33:21;5;3;
37290;PMS5003;23175;-33.706;151.094;2022-09-30T01:36:03;5;5;
37290;PMS5003;23175;-33.706;151.094;2022-09-30T01:38:46;11;3;
37290;PMS5003;23175;-33.706;151.094;2022-09-30T01:41:24;5;3;
37290;PMS5003;23175;-33.706;151.094;2022-09-30T01:44:04;3;3;
37290;PMS5003;23175;-33.706;151.094;2022-09-30T01:46:41;9;4;
37290;PMS5003;23175;-33.706;151.094;2022-09-30T01:49:17;5;4;
37290;PMS5003;23175;-33.706;151.094;2022-09-30T01:51:56;5;3;
37290;PMS5003;23175;-33.706;151.094;2022-09-30T01:54:32;6;3;
37290;PMS5003;23175;-33.706;151.094;2022-09-30T01:57:09;6;2;
37290;PMS5003;23175;-33.706;151.094;2022-09-30T01:59:45;4;2;
37290;PMS5003;23175;-33.706;151.094;2022-09-30T02:02:21;2;2;
37290;PMS5003;23175;-33.706;151.094;2022-09-30T02:04:56;7;3;
37290;PMS5003;23175;-33.706;151.094;2022-09-30T02:07:30;4;3;
37290;PMS5003;23175;-33.706;151.094;2022-09-30T02:10:04;6;2;
37290;PMS5003;23175;-33.706;151.094;2022-09-30T02:12:40;7;4;
37290;PMS5003;23175;-33.706;151.094;2022-09-30T02:15:15;6;4;
37290;PMS5003;23175;-33.706;151.094;2022-09-30T02:17:50;6;1;
37290;PMS5003;23175;-33.706;151.094;2022-09-30T02:20:25;9;5;
37290;PMS5003;23175;-33.706;151.094;2022-09-30T02:23:01;8;3;
37290;PMS5003;23175;-33.706;151.094;2022-09-30T02:25:36;6;4;
37290;PMS5003;23175;-33.706;151.094;2022-09-30T02:28:11;9;6;
37290;PMS5003;23175;-33.706;151.094;2022-09-30T02:30:47;9;4;
37290;PMS5003;23175;-33.706;151.094;2022-09-30T02:33:22;6;2;
37290;PMS5003;23175;-33.706;151.094;2022-09-30T02:35:57;6;5;
37290;PMS5003;23175;-33.706;151.094;2022-09-30T02:38:33;6;5;
37290;PMS5003;23175;-33.706;151.094;2022-09-30T02:41:08;7;3;
37290;PMS5003;23175;-33.706;151.094;2022-09-30T02:43:43;3;2;
37290;PMS5003;23175;-33.706;151.094;2022-09-30T02:46:15;5;3;
37290;PMS5003;23175;-33.706;151.094;2022-09-30T02:48:54;4;4;
37290;PMS5003;23175;-33.706;151.094;2022-09-30T02:51:38;8;3;
37290;PMS5003;23175;-33.706;151.094;2022-09-30T02:54:14;4;3;
37290;PMS5003;23175;-33.706;151.094;2022-09-30T02:56:49;11;3;
37290;PMS5003;23175;-33.706;151.094;2022-09-30T02:59:22;8;5;
37290;PMS5003;23175;-33.706;151.094;2022-09-30T03:01:53;9;9;
37290;PMS5003;23175;-33.706;151.094;2022-09-30T03:04:25;9;3;
37290;PMS5003;23175;-33.706;151.094;2022-09-30T03:06:58;4;4;
37290;PMS5003;23175;-33.706;151.094;2022-09-30T03:09:28;5;3;
37290;PMS5003;23175;-33.706;151.094;2022-09-30T03:12:00;10;5;
37290;PMS5003;23175;-33.706;151.094;2022-09-30T03:14:42;5;4;
37290;PMS5003;23175;-33.706;151.094;2022-09-30T03:17:31;4;1;
37290;PMS5003;23175;-33.706;151.094;2022-09-30T03:20:14;7;1;
37290;PMS5003;23175;-33.706;151.094;2022-09-30T03:22:59;2;1;
37290;PMS5003;23175;-33.706;151.094;2022-09-30T03:25:43;11;3;
37290;PMS5003;23175;-33.706;151.094;2022-09-30T03:28:22;7;2;
37290;PMS5003;23175;-33.706;151.094;2022-09-30T03:31:00;3;2;
37290;PMS5003;23175;-33.706;151.094;2022-09-30T03:33:40;6;4;
37290;PMS5003;23175;-33.706;151.094;2022-09-30T03:36:18;4;3;
37290;PMS5003;23175;-33.706;151.094;2022-09-30T03:38:57;4;2;
37290;PMS5003;23175;-33.706;151.094;2022-09-30T03:41:32;8;5;
37290;PMS5003;23175;-33.706;151.094;2022-09-30T03:44:09;17;9;
37290;PMS5003;23175;-33.706;151.094;2022-09-30T03:46:44;4;3;
37290;PMS5003;23175;-33.706;151.094;2022-09-30T03:49:17;2;2;
37290;PMS5003;23175;-33.706;151.094;2022-09-30T03:51:51;2;2;
37290;PMS5003;23175;-33.706;151.094;2022-09-30T03:54:21;3;3;
37290;PMS5003;23175;-33.706;151.094;2022-09-30T03:56:53;7;5;
37290;PMS5003;23175;-33.706;151.094;2022-09-30T03:59:23;8;5;
37290;PMS5003;23175;-33.706;151.094;2022-09-30T04:01:54;5;2;
37290;PMS5003;23175;-33.706;151.094;2022-09-30T04:04:25;10;7;
37290;PMS5003;23175;-33.706;151.094;2022-09-30T04:06:55;10;5;
37290;PMS5003;23175;-33.706;151.094;2022-09-30T04:09:25;13;8;
37290;PMS5003;23175;-33.706;151.094;2022-09-30T04:11:55;10;5;
37290;PMS5003;23175;-33.706;151.094;2022-09-30T04:14:26;7;3;
37290;PMS5003;23175;-33.706;151.094;2022-09-30T04:16:56;8;3;
37290;PMS5003;23175;-33.706;151.094;2022-09-30T04:19:27;8;3;
37290;PMS5003;23175;-33.706;151.094;2022-09-30T04:21:57;12;5;
37290;PMS5003;23175;-33.706;151.094;2022-09-30T04:24:27;7;6;
37290;PMS5003;23175;-33.706;151.094;2022-09-30T04:26:58;18;10;
37290;PMS5003;23175;-33.706;151.094;2022-09-30T04:29:28;6;4;
37290;PMS5003;23175;-33.706;151.094;2022-09-30T04:31:58;5;2;
37290;PMS5003;23175;-33.706;151.094;2022-09-30T04:34:28;5;2;
37290;PMS5003;23175;-33.706;151.094;2022-09-30T04:36:59;5;1;
37290;PMS5003;23175;-33.706;151.094;2022-09-30T04:39:29;3;3;
37290;PMS5003;23175;-33.706;151.094;2022-09-30T04:41:59;2;1;
37290;PMS5003;23175;-33.706;151.094;2022-09-30T04:44:29;7;6;
37290;PMS5003;23175;-33.706;151.094;2022-09-30T04:46:59;7;2;
37290;PMS5003;23175;-33.706;151.094;2022-09-30T04:49:29;5;2;
37290;PMS5003;23175;-33.706;151.094;2022-09-30T04:52:00;3;3;
37290;PMS5003;23175;-33.706;151.094;2022-09-30T04:54:30;11;5;
37290;PMS5003;23175;-33.706;151.094;2022-09-30T04:57:01;4;3;
37290;PMS5003;23175;-33.706;151.094;2022-09-30T04:59:31;6;3;
37290;PMS5003;23175;-33.706;151.094;2022-09-30T05:02:01;1;1;
37290;PMS5003;23175;-33.706;151.094;2022-09-30T05:04:32;1;1;
37290;PMS5003;23175;-33.706;151.094;2022-09-30T05:07:02;2;2;
37290;PMS5003;23175;-33.706;151.094;2022-09-30T05:09:33;3;3;
37290;PMS5003;23175;-33.706;151.094;2022-09-30T05:12:03;6;2;
37290;PMS5003;23175;-33.706;151.094;2022-09-30T05:14:33;7;4;
37290;PMS5003;23175;-33.706;151.094;2022-09-30T05:17:03;3;2;
37290;PMS5003;23175;-33.706;151.094;2022-09-30T05:19:33;4;2;
37290;PMS5003;23175;-33.706;151.094;2022-09-30T05:22:04;5;4;
37290;PMS5003;23175;-33.706;151.094;2022-09-30T05:24:34;6;3;
37290;PMS5003;23175;-33.706;151.094;2022-09-30T05:27:04;4;3;
37290;PMS5003;23175;-33.706;151.094;2022-09-30T05:29:34;3;1;
37290;PMS5003;23175;-33.706;151.094;2022-09-30T05:32:05;0;0;
37290;PMS5003;23175;-33.706;151.094;2022-09-30T05:34:35;1;1;
37290;PMS5003;23175;-33.706;151.094;2022-09-30T05:37:05;7;4;
37290;PMS5003;23175;-33.706;151.094;2022-09-30T05:39:35;2;2;
37290;PMS5003;23175;-33.706;151.094;2022-09-30T05:42:05;2;1;
37290;PMS5003;23175;-33.706;151.094;2022-09-30T05:44:35;1;1;
37290;PMS5003;23175;-33.706;151.094;2022-09-30T05:47:06;5;1;
37290;PMS5003;23175;-33.706;151.094;2022-09-30T05:49:36;4;2;
37290;PMS5003;23175;-33.706;151.094;2022-09-30T05:52:06;1;1;
37290;PMS5003;23175;-33.706;151.094;2022-09-30T05:54:36;2;2;
37290;PMS5003;23175;-33.706;151.094;2022-09-30T05:57:07;2;1;
37290;PMS5003;23175;-33.706;151.094;2022-09-30T05:59:37;2;1;
37290;PMS5003;23175;-33.706;151.094;2022-09-30T06:02:08;1;1;
37290;PMS5003;23175;-33.706;151.094;2022-09-30T06:04:38;3;3;
37290;PMS5003;23175;-33.706;151.094;2022-09-30T06:07:09;3;0;
37290;PMS5003;23175;-33.706;151.094;2022-09-30T06:09:39;4;1;
37290;PMS5003;23175;-33.706;151.094;2022-09-30T06:12:10;0;0;
37290;PMS5003;23175;-33.706;151.094;2022-09-30T06:14:40;4;0;
37290;PMS5003;23175;-33.706;151.094;2022-09-30T06:17:10;1;0;
37290;PMS5003;23175;-33.706;151.094;2022-09-30T06:19:41;4;1;
37290;PMS5003;23175;-33.706;151.094;2022-09-30T06:22:11;1;1;
37290;PMS5003;23175;-33.706;151.094;2022-09-30T06:24:41;2;2;
37290;PMS5003;23175;-33.706;151.094;2022-09-30T06:27:11;1;1;
37290;PMS5003;23175;-33.706;151.094;2022-09-30T06:29:42;2;1;
37290;PMS5003;23175;-33.706;151.094;2022-09-30T06:32:12;2;1;
37290;PMS5003;23175;-33.706;151.094;2022-09-30T06:34:42;1;0;
37290;PMS5003;23175;-33.706;151.094;2022-09-30T06:37:12;6;1;
37290;PMS5003;23175;-33.706;151.094;2022-09-30T06:39:43;1;0;
37290;PMS5003;23175;-33.706;151.094;2022-09-30T06:42:13;2;1;
37290;PMS5003;23175;-33.706;151.094;2022-09-30T06:44:43;4;3;
37290;PMS5003;23175;-33.706;151.094;2022-09-30T06:47:12;1;1;
37290;PMS5003;23175;-33.706;151.094;2022-09-30T06:49:42;2;2;
37290;PMS5003;23175;-33.706;151.094;2022-09-30T06:52:11;6;1;
37290;PMS5003;23175;-33.706;151.094;2022-09-30T06:54:40;3;1;
37290;PMS5003;23175;-33.706;151.094;2022-09-30T06:57:10;1;1;
37290;PMS5003;23175;-33.706;151.094;2022-09-30T06:59:39;8;2;
37290;PMS5003;23175;-33.706;151.094;2022-09-30T07:02:10;2;2;
37290;PMS5003;23175;-33.706;151.094;2022-09-30T07:04:40;3;3;
37290;PMS5003;23175;-33.706;151.094;2022-09-30T07:07:10;5;2;
37290;PMS5003;23175;-33.706;151.094;2022-09-30T07:09:39;2;0;
37290;PMS5003;23175;-33.706;151.094;2022-09-30T07:12:10;6;3;
37290;PMS5003;23175;-33.706;151.094;2022-09-30T07:14:39;4;3;
37290;PMS5003;23175;-33.706;151.094;2022-09-30T07:17:08;5;2;
37290;PMS5003;23175;-33.706;151.094;2022-09-30T07:19:38;3;2;
37290;PMS5003;23175;-33.706;151.094;2022-09-30T07:22:07;4;1;
37290;PMS5003;23175;-33.706;151.094;2022-09-30T07:24:36;2;2;
37290;PMS5003;23175;-33.706;151.094;2022-09-30T07:27:06;1;1;
37290;PMS5003;23175;-33.706;151.094;2022-09-30T07:29:35;4;1;
37290;PMS5003;23175;-33.706;151.094;2022-09-30T07:32:05;3;1;
37290;PMS5003;23175;-33.706;151.094;2022-09-30T07:34:35;2;2;
37290;PMS5003;23175;-33.706;151.094;2022-09-30T07:37:05;5;4;
37290;PMS5003;23175;-33.706;151.094;2022-09-30T07:39:35;8;1;
37290;PMS5003;23175;-33.706;151.094;2022-09-30T07:42:05;2;2;
37290;PMS5003;23175;-33.706;151.094;2022-09-30T07:44:35;5;1;
37290;PMS5003;23175;-33.706;151.094;2022-09-30T07:47:07;2;1;
37290;PMS5003;23175;-33.706;151.094;2022-09-30T07:49:38;5;2;
37290;PMS5003;23175;-33.706;151.094;2022-09-30T07:52:09;1;0;
37290;PMS5003;23175;-33.706;151.094;2022-09-30T07:54:40;1;0;
37290;PMS5003;23175;-33.706;151.094;2022-09-30T07:57:11;4;1;
37290;PMS5003;23175;-33.706;151.094;2022-09-30T07:59:42;4;2;
37290;PMS5003;23175;-33.706;151.094;2022-09-30T08:02:13;3;2;
37290;PMS5003;23175;-33.706;151.094;2022-09-30T08:04:45;8;7;
37290;PMS5003;23175;-33.706;151.094;2022-09-30T08:07:17;3;3;
37290;PMS5003;23175;-33.706;151.094;2022-09-30T08:09:49;3;2;
37290;PMS5003;23175;-33.706;151.094;2022-09-30T08:12:18;4;2;
37290;PMS5003;23175;-33.706;151.094;2022-09-30T08:14:49;4;4;
37290;PMS5003;23175;-33.706;151.094;2022-09-30T08:17:21;3;3;
37290;PMS5003;23175;-33.706;151.094;2022-09-30T08:19:51;6;4;
37290;PMS5003;23175;-33.706;151.094;2022-09-30T08:22:23;7;3;
37290;PMS5003;23175;-33.706;151.094;2022-09-30T08:24:54;5;4;
37290;PMS5003;23175;-33.706;151.094;2022-09-30T08:27:25;4;2;
37290;PMS5003;23175;-33.706;151.094;2022-09-30T08:29:55;7;4;
37290;PMS5003;23175;-33.706;151.094;2022-09-30T08:32:26;5;3;
37290;PMS5003;23175;-33.706;151.094;2022-09-30T08:34:58;13;5;
37290;PMS5003;23175;-33.706;151.094;2022-09-30T08:37:31;9;5;
37290;PMS5003;23175;-33.706;151.094;2022-09-30T08:40:00;10;7;
37290;PMS5003;23175;-33.706;151.094;2022-09-30T08:42:35;13;4;
37290;PMS5003;23175;-33.706;151.094;2022-09-30T08:45:20;8;5;
37290;PMS5003;23175;-33.706;151.094;2022-09-30T08:48:05;11;6;
37290;PMS5003;23175;-33.706;151.094;2022-09-30T08:50:55;15;4;
37290;PMS5003;23175;-33.706;151.094;2022-09-30T08:53:32;9;5;
37290;PMS5003;23175;-33.706;151.094;2022-09-30T08:56:05;12;7;
37290;PMS5003;23175;-33.706;151.094;2022-09-30T08:58:42;9;6;
37290;PMS5003;23175;-33.706;151.094;2022-09-30T09:01:16;14;9;
37290;PMS5003;23175;-33.706;151.094;2022-09-30T09:03:55;25;11;
37290;PMS5003;23175;-33.706;151.094;2022-09-30T09:06:29;12;10;
37290;PMS5003;23175;-33.706;151.094;2022-09-30T09:09:09;19;9;
37290;PMS5003;23175;-33.706;151.094;2022-09-30T09:11:54;12;8;
37290;PMS5003;23175;-33.706;151.094;2022-09-30T09:14:33;13;13;
37290;PMS5003;23175;-33.706;151.094;2022-09-30T09:17:14;19;8;
37290;PMS5003;23175;-33.706;151.094;2022-09-30T09:19:58;7;4;
37290;PMS5003;23175;-33.706;151.094;2022-09-30T09:22:39;14;9;
37290;PMS5003;23175;-33.706;151.094;2022-09-30T09:25:11;11;5;
37290;PMS5003;23175;-33.706;151.094;2022-09-30T09:27:53;8;5;
37290;PMS5003;23175;-33.706;151.094;2022-09-30T09:30:26;7;7;
37290;PMS5003;23175;-33.706;151.094;2022-09-30T09:35:50;10;8;
37290;PMS5003;23175;-33.706;151.094;2022-09-30T09:38:30;7;5;
37290;PMS5003;23175;-33.706;151.094;2022-09-30T09:41:11;18;8;
37290;PMS5003;23175;-33.706;151.094;2022-09-30T09:43:55;10;8;
37290;PMS5003;23175;-33.706;151.094;2022-09-30T09:46:39;9;4;
37290;PMS5003;23175;-33.706;151.094;2022-09-30T09:49:38;16;10;
37290;PMS5003;23175;-33.706;151.094;2022-09-30T09:52:18;9;6;
37290;PMS5003;23175;-33.706;151.094;2022-09-30T09:54:41;9;6;
37290;PMS5003;23175;-33.706;151.094;2022-09-30T09:57:14;15;8;
37290;PMS5003;23175;-33.706;151.094;2022-09-30T09:59:59;8;5;
37290;PMS5003;23175;-33.706;151.094;2022-09-30T10:02:45;7;6;
37290;PMS5003;23175;-33.706;151.094;2022-09-30T10:05:34;10;7;
37290;PMS5003;23175;-33.706;151.094;2022-09-30T10:08:10;11;6;
37290;PMS5003;23175;-33.706;151.094;2022-09-30T10:10:46;8;6;
37290;PMS5003;23175;-33.706;151.094;2022-09-30T10:13:21;13;6;
37290;PMS5003;23175;-33.706;151.094;2022-09-30T10:15:53;7;5;
37290;PMS5003;23175;-33.706;151.094;2022-09-30T10:18:28;12;9;
37290;PMS5003;23175;-33.706;151.094;2022-09-30T10:21:05;14;6;
37290;PMS5003;23175;-33.706;151.094;2022-09-30T10:23:47;11;5;
37290;PMS5003;23175;-33.706;151.094;2022-09-30T10:26:18;11;5;
37290;PMS5003;23175;-33.706;151.094;2022-09-30T10:28:52;6;4;
37290;PMS5003;23175;-33.706;151.094;2022-09-30T10:31:29;12;6;
37290;PMS5003;23175;-33.706;151.094;2022-09-30T10:34:08;14;5;
37290;PMS5003;23175;-33.706;151.094;2022-09-30T10:36:47;15;8;
37290;PMS5003;23175;-33.706;151.094;2022-09-30T10:39:21;6;3;
37290;PMS5003;23175;-33.706;151.094;2022-09-30T10:42:00;13;10;
37290;PMS5003;23175;-33.706;151.094;2022-09-30T10:44:35;14;8;
37290;PMS5003;23175;-33.706;151.094;2022-09-30T10:47:14;9;6;
37290;PMS5003;23175;-33.706;151.094;2022-09-30T10:49:47;11;6;
37290;PMS5003;23175;-33.706;151.094;2022-09-30T10:52:26;9;5;
37290;PMS5003;23175;-33.706;151.094;2022-09-30T10:55:05;13;10;
37290;PMS5003;23175;-33.706;151.094;2022-09-30T10:58:42;11;5;
37290;PMS5003;23175;-33.706;151.094;2022-09-30T11:01:23;6;2;
37290;PMS5003;23175;-33.706;151.094;2022-09-30T11:03:58;9;6;
37290;PMS5003;23175;-33.706;151.094;2022-09-30T11:06:36;15;6;
37290;PMS5003;23175;-33.706;151.094;2022-09-30T11:09:10;11;6;
37290;PMS5003;23175;-33.706;151.094;2022-09-30T11:11:46;7;5;
37290;PMS5003;23175;-33.706;151.094;2022-09-30T11:14:22;4;4;
37290;PMS5003;23175;-33.706;151.094;2022-09-30T11:17:03;11;5;
37290;PMS5003;23175;-33.706;151.094;2022-09-30T11:19:40;11;6;
37290;PMS5003;23175;-33.706;151.094;2022-09-30T11:22:22;13;5;
37290;PMS5003;23175;-33.706;151.094;2022-09-30T11:24:59;10;7;
37290;PMS5003;23175;-33.706;151.094;2022-09-30T11:27:37;10;6;
37290;PMS5003;23175;-33.706;151.094;2022-09-30T11:30:27;9;5;
37290;PMS5003;23175;-33.706;151.094;2022-09-30T11:33:08;3;2;
37290;PMS5003;23175;-33.706;151.094;2022-09-30T11:35:55;3;2;
37290;PMS5003;23175;-33.706;151.094;2022-09-30T11:38:41;8;8;
37290;PMS5003;23175;-33.706;151.094;2022-09-30T11:41:25;13;7;
37290;PMS5003;23175;-33.706;151.094;2022-09-30T11:44:06;10;9;
37290;PMS5003;23175;-33.706;151.094;2022-09-30T11:46:52;6;3;
37290;PMS5003;23175;-33.706;151.094;2022-09-30T11:49:50;10;5;
37290;PMS5003;23175;-33.706;151.094;2022-09-30T11:52:31;10;2;
37290;PMS5003;23175;-33.706;151.094;2022-09-30T11:55:25;7;5;
37290;PMS5003;23175;-33.706;151.094;2022-09-30T11:58:04;7;3;
37290;PMS5003;23175;-33.706;151.094;2022-09-30T12:00:50;9;3;
37290;PMS5003;23175;-33.706;151.094;2022-09-30T12:03:27;5;5;
37290;PMS5003;23175;-33.706;151.094;2022-09-30T12:06:03;12;7;
37290;PMS5003;23175;-33.706;151.094;2022-09-30T12:08:41;8;5;
37290;PMS5003;23175;-33.706;151.094;2022-09-30T12:11:19;6;5;
37290;PMS5003;23175;-33.706;151.094;2022-09-30T12:13:59;5;4;
37290;PMS5003;23175;-33.706;151.094;2022-09-30T12:16:35;11;6;
37290;PMS5003;23175;-33.706;151.094;2022-09-30T12:19:12;14;8;
37290;PMS5003;23175;-33.706;151.094;2022-09-30T12:21:48;8;6;
37290;PMS5003;23175;-33.706;151.094;2022-09-30T12:24:22;10;6;
37290;PMS5003;23175;-33.706;151.094;2022-09-30T12:26:57;15;5;
37290;PMS5003;23175;-33.706;151.094;2022-09-30T12:29:33;7;4;
37290;PMS5003;23175;-33.706;151.094;2022-09-30T12:32:11;10;4;
37290;PMS5003;23175;-33.706;151.094;2022-09-30T12:34:57;12;3;
37290;PMS5003;23175;-33.706;151.094;2022-09-30T12:37:43;12;4;
37290;PMS5003;23175;-33.706;151.094;2022-09-30T12:40:30;8;3;
37290;PMS5003;23175;-33.706;151.094;2022-09-30T12:43:22;9;5;
37290;PMS5003;23175;-33.706;151.094;2022-09-30T12:46:30;5;5;
37290;PMS5003;23175;-33.706;151.094;2022-09-30T12:49:18;11;6;
37290;PMS5003;23175;-33.706;151.094;2022-09-30T12:51:54;11;4;
37290;PMS5003;23175;-33.706;151.094;2022-09-30T12:54:31;8;6;
37290;PMS5003;23175;-33.706;151.094;2022-09-30T12:57:07;6;3;
37290;PMS5003;23175;-33.706;151.094;2022-09-30T12:59:44;9;5;
37290;PMS5003;23175;-33.706;151.094;2022-09-30T13:02:25;8;4;
37290;PMS5003;23175;-33.706;151.094;2022-09-30T13:06:08;10;5;
37290;PMS5003;23175;-33.706;151.094;2022-09-30T13:08:42;13;9;
37290;PMS5003;23175;-33.706;151.094;2022-09-30T13:11:47;13;9;
37290;PMS5003;23175;-33.706;151.094;2022-09-30T13:15:20;9;8;
37290;PMS5003;23175;-33.706;151.094;2022-09-30T13:19:18;12;8;
37290;PMS5003;23175;-33.706;151.094;2022-09-30T13:22:26;11;9;
37290;PMS5003;23175;-33.706;151.094;2022-09-30T13:25:13;9;7;
37290;PMS5003;23175;-33.706;151.094;2022-09-30T13:27:43;11;8;
37290;PMS5003;23175;-33.706;151.094;2022-09-30T13:30:37;12;9;
37290;PMS5003;23175;-33.706;151.094;2022-09-30T13:34:13;13;8;
37290;PMS5003;23175;-33.706;151.094;2022-09-30T13:36:57;34;22;
37290;PMS5003;23175;-33.706;151.094;2022-09-30T13:39:30;18;14;
37290;PMS5003;23175;-33.706;151.094;2022-09-30T13:42:17;31;25;
37290;PMS5003;23175;-33.706;151.094;2022-09-30T13:44:56;13;11;
37290;PMS5003;23175;-33.706;151.094;2022-09-30T13:47:32;26;21;
37290;PMS5003;23175;-33.706;151.094;2022-09-30T13:50:12;23;20;
37290;PMS5003;23175;-33.706;151.094;2022-09-30T13:52:50;24;18;
37290;PMS5003;23175;-33.706;151.094;2022-09-30T13:55:24;13;13;
37290;PMS5003;23175;-33.706;151.094;2022-09-30T13:58:02;17;15;
37290;PMS5003;23175;-33.706;151.094;2022-09-30T14:00:46;17;11;
37290;PMS5003;23175;-33.706;151.094;2022-09-30T14:03:31;17;11;
37290;PMS5003;23175;-33.706;151.094;2022-09-30T14:06:22;12;9;
37290;PMS5003;23175;-33.706;151.094;2022-09-30T14:09:10;16;11;
37290;PMS5003;23175;-33.706;151.094;2022-09-30T14:11:51;13;13;
37290;PMS5003;23175;-33.706;151.094;2022-09-30T14:16:49;10;5;
37290;PMS5003;23175;-33.706;151.094;2022-09-30T14:19:36;9;5;
37290;PMS5003;23175;-33.706;151.094;2022-09-30T14:22:21;7;7;
37290;PMS5003;23175;-33.706;151.094;2022-09-30T14:24:55;9;6;
37290;PMS5003;23175;-33.706;151.094;2022-09-30T14:27:32;6;5;
37290;PMS5003;23175;-33.706;151.094;2022-09-30T14:30:12;8;5;
37290;PMS5003;23175;-33.706;151.094;2022-09-30T14:32:46;10;6;
37290;PMS5003;23175;-33.706;151.094;2022-09-30T14:35:20;8;5;
37290;PMS5003;23175;-33.706;151.094;2022-09-30T14:37:55;10;7;
37290;PMS5003;23175;-33.706;151.094;2022-09-30T14:40:30;8;5;
37290;PMS5003;23175;-33.706;151.094;2022-09-30T14:43:02;9;5;
37290;PMS5003;23175;-33.706;151.094;2022-09-30T14:45:35;14;5;
37290;PMS5003;23175;-33.706;151.094;2022-09-30T14:48:08;9;5;
37290;PMS5003;23175;-33.706;151.094;2022-09-30T14:50:43;7;3;
37290;PMS5003;23175;-33.706;151.094;2022-09-30T14:53:23;6;3;
37290;PMS5003;23175;-33.706;151.094;2022-09-30T14:55:55;11;7;
37290;PMS5003;23175;-33.706;151.094;2022-09-30T14:58:27;7;3;
37290;PMS5003;23175;-33.706;151.094;2022-09-30T15:01:00;7;5;
37290;PMS5003;23175;-33.706;151.094;2022-09-30T15:03:32;4;4;
37290;PMS5003;23175;-33.706;151.094;2022-09-30T15:06:05;11;2;
37290;PMS5003;23175;-33.706;151.094;2022-09-30T15:08:46;6;3;
37290;PMS5003;23175;-33.706;151.094;2022-09-30T15:11:18;10;4;
37290;PMS5003;23175;-33.706;151.094;2022-09-30T15:13:50;7;2;
37290;PMS5003;23175;-33.706;151.094;2022-09-30T15:16:25;3;3;
37290;PMS5003;23175;-33.706;151.094;2022-09-30T15:18:58;8;6;
37290;PMS5003;23175;-33.706;151.094;2022-09-30T15:21:29;7;7;
37290;PMS5003;23175;-33.706;151.094;2022-09-30T15:24:00;12;9;
37290;PMS5003;23175;-33.706;151.094;2022-09-30T15:26:31;9;5;
37290;PMS5003;23175;-33.706;151.094;2022-09-30T15:29:02;8;5;
37290;PMS5003;23175;-33.706;151.094;2022-09-30T15:31:32;5;3;
37290;PMS5003;23175;-33.706;151.094;2022-09-30T15:34:13;6;4;
37290;PMS5003;23175;-33.706;151.094;2022-09-30T15:36:45;11;6;
37290;PMS5003;23175;-33.706;151.094;2022-09-30T15:39:23;7;4;
37290;PMS5003;23175;-33.706;151.094;2022-09-30T15:41:56;4;4;
37290;PMS5003;23175;-33.706;151.094;2022-09-30T15:44:36;3;2;
37290;PMS5003;23175;-33.706;151.094;2022-09-30T15:47:07;5;4;
37290;PMS5003;23175;-33.706;151.094;2022-09-30T15:49:45;11;3;
37290;PMS5003;23175;-33.706;151.094;2022-09-30T15:52:36;8;4;
37290;PMS5003;23175;-33.706;151.094;2022-09-30T15:55:46;5;3;
37290;PMS5003;23175;-33.706;151.094;2022-09-30T15:58:34;7;4;
37290;PMS5003;23175;-33.706;151.094;2022-09-30T16:01:10;4;3;
37290;PMS5003;23175;-33.706;151.094;2022-09-30T16:03:46;4;4;
37290;PMS5003;23175;-33.706;151.094;2022-09-30T16:06:20;2;1;
37290;PMS5003;23175;-33.706;151.094;2022-09-30T16:08:56;7;3;
37290;PMS5003;23175;-33.706;151.094;2022-09-30T16:11:29;6;4;
37290;PMS5003;23175;-33.706;151.094;2022-09-30T16:14:02;4;2;
37290;PMS5003;23175;-33.706;151.094;2022-09-30T16:16:36;6;4;
37290;PMS5003;23175;-33.706;151.094;2022-09-30T16:19:06;9;5;
37290;PMS5003;23175;-33.706;151.094;2022-09-30T16:21:46;7;6;
37290;PMS5003;23175;-33.706;151.094;2022-09-30T16:24:58;7;2;
37290;PMS5003;23175;-33.706;151.094;2022-09-30T16:27:31;4;2;
37290;PMS5003;23175;-33.706;151.094;2022-09-30T16:30:02;3;3;
37290;PMS5003;23175;-33.706;151.094;2022-09-30T16:32:35;4;4;
37290;PMS5003;23175;-33.706;151.094;2022-09-30T16:35:12;3;3;
37290;PMS5003;23175;-33.706;151.094;2022-09-30T16:37:46;5;4;
37290;PMS5003;23175;-33.706;151.094;2022-09-30T16:40:19;11;3;
37290;PMS5003;23175;-33.706;151.094;2022-09-30T16:42:50;3;3;
37290;PMS5003;23175;-33.706;151.094;2022-09-30T16:45:20;4;2;
37290;PMS5003;23175;-33.706;151.094;2022-09-30T16:47:51;7;6;
37290;PMS5003;23175;-33.706;151.094;2022-09-30T16:50:27;2;2;
37290;PMS5003;23175;-33.706;151.094;2022-09-30T16:53:00;9;2;
37290;PMS5003;23175;-33.706;151.094;2022-09-30T16:55:30;10;4;
37290;PMS5003;23175;-33.706;151.094;2022-09-30T16:58:00;12;3;
37290;PMS5003;23175;-33.706;151.094;2022-09-30T17:00:31;4;2;